Time;durP1;ratioP1;P1;durP2;ratioP2;P2;SDS_P1;SDS_P2;PMS_P1;PMS_P2;Temp;Humidity;BMP_temperature;BMP_pressure;BME280_temperature;BME280_humidity;BME280_pressure;Samples;Min_cycle;Max_cycle;Signal;HPM_P1;HPM_P2
2022/12/16 00:01:11;;;;;;;64.00;35.70;;;-4.40;99.90;-5.60;99950;;;;566620;254;24194;-75
2022/12/16 00:03:40;;;;;;;63.37;36.03;;;-4.40;99.90;-5.60;99951;;;;555077;255;24247;-72
2022/12/16 00:06:08;;;;;;;64.67;36.40;;;-4.40;99.90;-5.60;99954;;;;556939;255;24141;-71
2022/12/16 00:08:36;;;;;;;61.87;36.63;;;-4.40;99.90;-5.60;99955;;;;554192;255;24138;-71
2022/12/16 00:11:04;;;;;;;65.87;37.67;;;-4.40;99.90;-5.60;99952;;;;554584;255;24129;-71
2022/12/16 00:13:36;;;;;;;63.43;35.97;;;-4.30;99.90;-5.60;99957;;;;556823;255;24154;-71
2022/12/16 00:15:59;;;;;;;67.13;35.67;;;-4.30;99.90;-5.60;99954;;;;553856;255;24132;-71
2022/12/16 00:18:27;;;;;;;65.53;37.83;;;-4.30;99.90;-5.50;99952;;;;569091;249;24082;-71
2022/12/16 00:20:55;;;;;;;69.57;35.10;;;-4.30;99.90;-5.50;99957;;;;578497;248;24110;-71
2022/12/16 00:23:23;;;;;;;60.87;36.33;;;-4.30;99.90;-5.50;99951;;;;568389;252;24209;-70
2022/12/16 00:25:51;;;;;;;68.00;37.20;;;-4.20;99.90;-5.50;99954;;;;567748;249;24149;-71
2022/12/16 00:28:22;;;;;;;62.97;35.63;;;-4.20;99.90;-5.50;99948;;;;558107;255;24125;-70
2022/12/16 00:30:47;;;;;;;64.17;35.90;;;-4.20;99.90;-5.50;99954;;;;557682;255;24128;-72
2022/12/16 00:33:18;;;;;;;65.57;36.07;;;-4.20;99.90;-5.40;99953;;;;555553;254;24111;-70
2022/12/16 00:35:43;;;;;;;68.07;36.40;;;-4.20;99.90;-5.40;99947;;;;558216;254;24149;-70
2022/12/16 00:38:11;;;;;;;69.63;34.77;;;-4.20;99.90;-5.40;99949;;;;569903;249;24107;-70
2022/12/16 00:40:38;;;;;;;68.47;37.63;;;-4.20;99.90;-5.40;99959;;;;578590;248;24127;-71
2022/12/16 00:43:06;;;;;;;68.50;35.00;;;-4.20;99.90;-5.40;99964;;;;568899;252;24180;-70
2022/12/16 00:45:34;;;;;;;65.50;37.50;;;-4.20;99.90;-5.40;99968;;;;568663;249;24177;-70
2022/12/16 00:48:06;;;;;;;62.90;33.33;;;-4.20;99.90;-5.30;99973;;;;557803;254;24159;-70
2022/12/16 00:50:34;;;;;;;63.83;36.23;;;-4.10;99.90;-5.30;99975;;;;565801;254;24107;-71
2022/12/16 00:53:00;;;;;;;72.13;42.87;;;-4.10;99.90;-5.30;99979;;;;552527;254;35447;-71
2022/12/16 00:55:28;;;;;;;71.43;42.37;;;-4.00;99.90;-5.30;99979;;;;552734;254;35602;-71
2022/12/16 00:58:00;;;;;;;66.93;34.70;;;-4.10;99.90;-5.30;99979;;;;557568;254;24094;-71
2022/12/16 01:00:26;;;;;;;64.03;37.97;;;-4.10;99.90;-5.30;99978;;;;557083;254;24114;-71
2022/12/16 01:02:54;;;;;;;71.10;37.10;;;-4.10;99.90;-5.30;99974;;;;557146;254;24098;-72
2022/12/16 01:05:25;;;;;;;68.87;36.73;;;-4.10;99.90;-5.30;99982;;;;557666;254;24107;-72
2022/12/16 01:07:50;;;;;;;74.00;39.37;;;-4.10;99.90;-5.30;99991;;;;558285;254;24169;-74
2022/12/16 01:10:18;;;;;;;67.97;39.67;;;-4.10;99.90;-5.30;99986;;;;558407;255;24131;-71
2022/12/16 01:12:46;;;;;;;72.57;41.03;;;-4.00;99.90;-5.30;99993;;;;557757;255;24291;-71
2022/12/16 01:15:14;;;;;;;68.83;39.27;;;-4.00;99.90;-5.30;99989;;;;556887;255;24156;-70
2022/12/16 01:17:44;;;;;;;65.50;39.17;;;-4.00;99.90;-5.30;99983;;;;565344;254;24129;-74
2022/12/16 01:20:15;;;;;;;68.97;38.43;;;-4.00;99.90;-5.30;99997;;;;556860;255;24128;-70
2022/12/16 01:22:40;;;;;;;68.90;37.97;;;-4.10;99.90;-5.40;100002;;;;556602;255;24182;-71
2022/12/16 01:25:08;;;;;;;68.13;35.13;;;-4.10;99.90;-5.40;100000;;;;556869;255;25228;-72
2022/12/16 01:27:36;;;;;;;71.60;38.83;;;-4.10;99.90;-5.40;100010;;;;566008;254;24140;-73
2022/12/16 01:30:04;;;;;;;69.67;40.73;;;-4.10;99.90;-5.40;100008;;;;558153;255;24141;-72
2022/12/16 01:32:31;;;;;;;71.60;40.93;;;-4.10;99.90;-5.40;100010;;;;565627;254;24258;-70
2022/12/16 01:34:59;;;;;;;69.67;41.60;;;-4.10;99.90;-5.30;100017;;;;557223;255;24127;-70
2022/12/16 01:37:27;;;;;;;70.60;40.23;;;-4.10;99.90;-5.30;100011;;;;557259;255;24121;-71
2022/12/16 01:39:56;;;;;;;70.97;41.10;;;-4.10;99.90;-5.30;100023;;;;557212;255;24104;-70
2022/12/16 01:42:29;;;;;;;66.07;39.30;;;-4.10;99.90;-5.30;100017;;;;557256;255;24122;-70
2022/12/16 01:44:53;;;;;;;67.57;39.63;;;-4.10;99.90;-5.30;100023;;;;569908;248;24098;-70
2022/12/16 01:47:26;;;;;;;66.30;39.37;;;-4.10;99.90;-5.30;100019;;;;578954;248;24098;-70
2022/12/16 01:50:02;;;;;;;63.87;38.37;;;-4.10;99.90;-5.30;100018;;;;554756;255;25211;-71
2022/12/16 01:52:30;;;;;;;64.13;37.37;;;-4.10;99.90;-5.30;100020;;;;569768;249;24088;-68
2022/12/16 01:55:11;;;;;;;63.83;38.80;;;-4.10;99.90;-5.30;100022;;;;559650;254;24125;-70
2022/12/16 01:57:44;;;;;;;64.10;39.47;;;-4.10;99.90;-5.30;100026;;;;570797;249;25185;-70
2022/12/16 02:00:12;;;;;;;66.63;40.17;;;-4.00;99.90;-5.30;100026;;;;563754;250;24122;-70
2022/12/16 02:02:43;;;;;;;67.47;39.37;;;-4.00;99.90;-5.20;100025;;;;574509;249;24143;-71
2022/12/16 02:05:20;;;;;;;64.03;35.83;;;-4.00;99.90;-5.30;100029;;;;556841;254;24212;-71
2022/12/16 02:08:03;;;;;;;70.37;38.13;;;-4.00;99.90;-5.30;100035;;;;577770;248;24121;-72
2022/12/16 02:10:43;;;;;;;57.90;36.60;;;-4.00;99.90;-5.30;100035;;;;554470;255;24120;-69
2022/12/16 02:13:38;;;;;;;68.43;39.10;;;-4.10;99.90;-5.30;100040;;;;557107;254;24097;-70
2022/12/16 02:17:02;;;;;;;63.70;35.73;;;-4.10;99.90;-5.30;100036;;;;567620;249;24088;-71
2022/12/16 02:20:12;;;;;;;66.70;36.50;;;-4.10;99.90;-5.40;100041;;;;569369;249;24064;-70
2022/12/16 02:23:04;;;;;;;63.80;36.43;;;-4.10;99.90;-5.40;100026;;;;555048;255;24190;-70
2022/12/16 02:25:42;;;;;;;73.53;41.80;;;-4.20;99.90;-5.40;100030;;;;560229;251;35538;-70
2022/12/16 02:28:15;;;;;;;68.23;36.87;;;-4.20;99.90;-5.40;100036;;;;572805;250;24158;-71
2022/12/16 02:30:55;;;;;;;61.03;35.67;;;-4.20;99.90;-5.50;100042;;;;564098;251;24135;-71
2022/12/16 02:33:47;;;;;;;71.03;40.37;;;-4.20;99.90;-5.50;100043;;;;565307;251;24165;-71
2022/12/16 02:36:33;;;;;;;66.23;37.60;;;-4.20;99.90;-5.40;100042;;;;573797;250;24178;-71
2022/12/16 02:39:09;;;;;;;69.00;38.40;;;-4.30;99.90;-5.40;100035;;;;564079;251;24106;-70
2022/12/16 02:42:01;;;;;;;72.33;39.10;;;-4.20;99.90;-5.30;100040;;;;573493;250;24110;-72
2022/12/16 02:44:40;;;;;;;70.53;41.20;;;-4.10;99.90;-5.30;100031;;;;565235;251;24124;-71
2022/12/16 02:47:08;;;;;;;71.17;39.23;;;-4.10;99.90;-5.30;100027;;;;568376;251;24142;-72
2022/12/16 02:49:42;;;;;;;72.30;39.97;;;-4.10;99.90;-5.30;100023;;;;565478;251;24098;-70
2022/12/16 02:52:10;;;;;;;65.80;40.03;;;-4.10;99.90;-5.30;100021;;;;563869;251;24126;-71
2022/12/16 02:54:41;;;;;;;67.43;39.40;;;-4.10;99.90;-5.30;100027;;;;565475;251;24125;-71
2022/12/16 02:57:12;;;;;;;68.77;39.63;;;-4.10;99.90;-5.40;100019;;;;566326;250;24140;-73
2022/12/16 02:59:55;;;;;;;67.67;39.13;;;-4.10;99.90;-5.40;100014;;;;564660;250;24116;-72
2022/12/16 03:02:41;;;;;;;74.20;41.57;;;-4.10;99.90;-5.40;100013;;;;564747;250;24163;-70
2022/12/16 03:05:17;;;;;;;70.03;40.77;;;-4.20;99.90;-5.40;100011;;;;565989;250;24106;-72
2022/12/16 03:07:45;;;;;;;72.80;41.63;;;-4.20;99.90;-5.40;100019;;;;566006;250;24156;-70
2022/12/16 03:10:13;;;;;;;72.07;39.27;;;-4.10;99.90;-5.40;100030;;;;578374;248;24117;-72
2022/12/16 03:12:42;;;;;;;71.30;38.60;;;-4.10;99.90;-5.30;100025;;;;578065;248;24170;-73
2022/12/16 03:15:10;;;;;;;72.17;40.37;;;-4.10;99.90;-5.30;100014;;;;560993;254;24120;-70
2022/12/16 03:17:42;;;;;;;73.97;40.07;;;-4.10;99.90;-5.40;100016;;;;575349;249;24090;-71
2022/12/16 03:20:07;;;;;;;69.10;40.40;;;-4.10;99.90;-5.40;100023;;;;578565;248;24159;-71
2022/12/16 03:22:35;;;;;;;73.27;40.20;;;-4.20;99.90;-5.40;100018;;;;571287;249;24134;-71
2022/12/16 03:25:03;;;;;;;71.87;40.30;;;-4.20;99.90;-5.40;100014;;;;566510;249;24095;-70
2022/12/16 03:27:50;;;;;;;77.00;37.13;;;-4.20;99.90;-5.40;100028;;;;578340;248;24126;-70
2022/12/16 03:30:18;;;;;;;73.70;40.17;;;-4.20;99.90;-5.40;100038;;;;569455;249;24113;-71
2022/12/16 03:32:52;;;;;;;67.73;37.67;;;-4.20;99.90;-5.40;100045;;;;565755;249;24125;-71
2022/12/16 03:35:25;;;;;;;67.87;38.80;;;-4.10;99.90;-5.30;100039;;;;567435;249;24166;-72
2022/12/16 03:37:54;;;;;;;69.23;41.73;;;-4.10;99.90;-5.40;100037;;;;565800;249;25127;-72
2022/12/16 03:40:22;;;;;;;72.93;42.70;;;-4.10;99.90;-5.40;100037;;;;565925;249;24072;-71
2022/12/16 03:42:51;;;;;;;71.73;38.23;;;-4.10;99.90;-5.40;100040;;;;565706;249;24089;-71
2022/12/16 03:45:19;;;;;;;72.07;36.23;;;-4.10;99.90;-5.40;100029;;;;565643;249;25130;-72
2022/12/16 03:47:54;;;;;;;73.53;37.30;;;-4.20;99.90;-5.40;100044;;;;565583;249;24104;-72
2022/12/16 03:50:24;;;;;;;69.83;40.37;;;-4.20;99.90;-5.40;100037;;;;565364;249;24175;-69
2022/12/16 03:52:52;;;;;;;78.00;41.00;;;-4.20;99.90;-5.40;100042;;;;569130;249;24135;-71
2022/12/16 03:55:23;;;;;;;80.33;41.87;;;-4.20;99.90;-5.50;100042;;;;568986;249;24087;-69
2022/12/16 03:57:48;;;;;;;79.93;42.13;;;-4.20;99.90;-5.50;100029;;;;568948;249;24100;-70
2022/12/16 04:00:18;;;;;;;75.00;41.73;;;-4.20;99.90;-5.50;100028;;;;568926;249;24102;-70
2022/12/16 04:02:50;;;;;;;80.90;41.77;;;-4.20;99.90;-5.50;100030;;;;568934;249;24163;-71
2022/12/16 04:05:17;;;;;;;79.10;43.43;;;-4.20;99.90;-5.50;100033;;;;565801;249;24085;-69
2022/12/16 04:07:42;;;;;;;77.30;40.90;;;-4.20;99.90;-5.60;100032;;;;569945;248;24109;-71
2022/12/16 04:10:10;;;;;;;74.53;40.47;;;-4.30;99.90;-5.60;100038;;;;570649;249;24086;-72
2022/12/16 04:29:24;;;;;;;75.93;40.93;;;-4.30;99.90;-5.50;100032;;;;570453;249;24087;-74
2022/12/16 04:31:53;;;;;;;76.23;40.83;;;-4.30;99.90;-5.60;100030;;;;569337;249;24111;-70
2022/12/16 04:34:30;;;;;;;83.93;45.33;;;-4.20;99.90;-5.50;100039;;;;564279;249;35256;-71
